Terminal Aerodrome Forecast
Issued by NWS Wilmington, OH

Current Version | Previous Version | Graphics & Text | Print | Product List | Glossary On
Versions: 1 2 3 4 5 6 7 8 9 10 11 12 13 14 15 16 17 18 19 20 21 22 23 24 25 26 27 28
649
FTUS41 KILN 271733
TAFCVG
TAF
KCVG 271733Z 2718/2824 VRB03KT P6SM SCT035 BKN150
      TEMPO 2718/2721 BKN035
     FM280600 VRB04KT P6SM VCTS BKN040CB BKN150
     FM280800 VRB03KT 5SM BR VCTS BKN040CB BKN150
     FM281200 VRB04KT 5SM -SHRA BR VCTS OVC030CB
     FM281800 VRB04KT P6SM VCTS BKN040CB BKN150=

USA.gov is the U.S. government's official web portal to all federal, state and local government web resources and services.